createdAt,value
2023-04-06T00:01:11.370Z,61143.44
2023-04-06T00:06:15.985Z,61125.47
2023-04-06T00:11:20.970Z,61109.06
2023-04-06T00:16:25.075Z,61082.72
2023-04-06T00:21:28.902Z,61025.75
2023-04-06T00:26:32.678Z,61026.91
2023-04-06T00:31:35.463Z,61022.69
2023-04-06T00:36:38.055Z,61008.75
2023-04-06T00:41:47.773Z,61029.63
2023-04-06T00:46:50.635Z,61021.88
2023-04-06T00:51:53.327Z,61003.72
2023-04-06T00:56:57.794Z,61016.59
2023-04-06T01:02:00.649Z,60987.78
2023-04-06T01:07:03.791Z,60976.88
2023-04-06T01:12:07.738Z,60984.84
2023-04-06T01:17:10.775Z,60965.28
2023-04-06T01:22:17.316Z,60999.13
2023-04-06T01:27:19.879Z,61004.13
2023-04-06T01:32:22.617Z,61004.94
2023-04-06T01:37:27.106Z,60990.19
2023-04-06T01:42:31.229Z,60969.34
2023-04-06T01:47:33.821Z,60988.00
2023-04-06T01:52:39.447Z,61013.88
2023-04-06T01:57:41.999Z,60978.38
2023-04-06T02:02:44.592Z,60999.91
2023-04-06T02:07:48.483Z,60981.53
2023-04-06T02:12:51.274Z,60985.38
2023-04-06T02:17:54.293Z,60958.88
2023-04-06T02:22:58.813Z,60964.16
2023-04-06T02:28:01.456Z,60938.19
2023-04-06T02:33:04.962Z,60956.53
2023-04-06T02:38:09.034Z,60909.25
2023-04-06T02:43:11.662Z,60906.72
2023-04-06T02:48:14.249Z,60929.31
2023-04-06T02:53:18.142Z,60930.22
2023-04-06T02:58:20.786Z,60933.47
2023-04-06T03:03:23.448Z,60910.84
2023-04-06T03:08:27.511Z,60905.25
2023-04-06T03:13:31.241Z,60934.88
2023-04-06T03:18:34.156Z,60897.31
2023-04-06T03:23:38.039Z,60950.00
2023-04-06T03:28:40.585Z,60908.97
2023-04-06T03:33:43.242Z,60936.31
2023-04-06T03:38:47.726Z,60971.44
2023-04-06T03:43:50.934Z,60940.31
2023-04-06T03:48:53.516Z,60954.44
2023-04-06T03:53:57.402Z,61016.31
2023-04-06T03:59:00.005Z,60994.91
2023-04-06T04:04:02.729Z,60998.53
2023-04-06T04:09:06.973Z,60978.34
2023-04-06T04:14:09.690Z,60977.84
2023-04-06T04:19:12.308Z,61001.25
2023-04-06T04:24:16.324Z,60985.97
2023-04-06T04:29:22.086Z,60960.63
2023-04-06T04:34:26.197Z,61012.41
2023-04-06T04:39:30.381Z,60989.88
2023-04-06T04:44:32.973Z,60989.06
2023-04-06T04:49:35.538Z,60993.44
2023-04-06T04:54:41.279Z,60999.38
2023-04-06T04:59:45.158Z,60963.03
2023-04-06T05:04:47.726Z,60993.34
2023-04-06T05:09:51.772Z,61010.50
2023-04-06T05:14:55.063Z,61025.94
2023-04-06T05:19:57.734Z,60975.81
2023-04-06T05:25:01.700Z,60986.81
2023-04-06T05:30:04.542Z,61041.69
2023-04-06T05:35:07.736Z,61028.34
2023-04-06T05:40:11.933Z,61022.59
2023-04-06T05:45:17.767Z,61093.88
2023-04-06T05:50:20.672Z,61059.50
2023-04-06T05:55:24.612Z,61069.09
2023-04-06T06:00:27.240Z,61103.09
2023-04-06T06:05:31.171Z,61119.44
2023-04-06T06:10:35.116Z,61109.22
2023-04-06T06:15:37.721Z,61135.34
2023-04-06T06:20:40.454Z,61161.66
2023-04-06T06:25:44.434Z,61182.81
2023-04-06T06:30:48.075Z,61205.88
2023-04-06T06:35:50.806Z,61351.09
2023-04-06T06:40:55.118Z,61519.97
2023-04-06T06:45:57.789Z,61558.53
2023-04-06T06:51:00.435Z,61644.28
2023-04-06T06:56:04.705Z,61718.31
2023-04-06T07:01:07.506Z,61796.25
2023-04-06T07:06:10.124Z,61863.75
2023-04-06T07:11:14.111Z,61862.03
2023-04-06T07:16:16.770Z,61860.53
2023-04-06T07:21:21.246Z,61886.78
2023-04-06T07:26:25.238Z,61939.66
2023-04-06T07:31:28.043Z,61915.81
2023-04-06T07:36:30.716Z,62059.56
2023-04-06T07:41:34.706Z,61976.41
2023-04-06T07:46:37.685Z,61971.53
2023-04-06T07:51:41.220Z,62027.88
2023-04-06T07:56:44.963Z,62103.56
2023-04-06T08:01:47.591Z,62169.88
2023-04-06T08:06:50.352Z,62129.38
2023-04-06T08:11:54.344Z,62210.63
2023-04-06T08:16:56.930Z,62297.25
2023-04-06T08:21:59.579Z,62144.03
2023-04-06T08:27:04.005Z,62121.78
2023-04-06T08:32:07.320Z,62039.09
2023-04-06T08:37:09.789Z,61972.00
2023-04-06T08:42:20.979Z,61961.59
2023-04-06T08:47:25.036Z,62042.63
2023-04-06T08:52:29.683Z,61996.66
2023-04-06T08:57:34.487Z,62012.44
2023-04-06T09:02:41.914Z,62040.53
2023-04-06T09:07:44.539Z,62033.97
2023-04-06T09:12:48.439Z,62110.84
2023-04-06T09:17:52.912Z,62216.13
2023-04-06T09:22:56.230Z,62182.88
2023-04-06T09:28:03.657Z,62232.25
2023-04-06T09:33:06.333Z,62184.34
2023-04-06T09:38:13.207Z,62207.47
2023-04-06T09:43:27.252Z,62171.72
2023-04-06T09:48:33.190Z,62222.50
2023-04-06T09:53:39.801Z,62154.47
2023-04-06T09:58:47.496Z,62171.56
2023-04-06T10:03:58.474Z,62248.34
2023-04-06T10:09:04.260Z,62248.88
2023-04-06T10:14:09.786Z,62307.91
2023-04-06T10:19:16.958Z,62240.97
2023-04-06T10:24:19.642Z,62261.09
2023-04-06T10:29:23.616Z,62293.06
2023-04-06T10:34:36.479Z,62243.00
2023-04-06T10:39:47.882Z,62251.41
2023-04-06T10:44:52.277Z,62301.59
2023-04-06T10:49:54.920Z,62324.69
2023-04-06T10:54:58.310Z,62311.84
2023-04-06T11:00:02.259Z,62253.50
2023-04-06T11:05:05.137Z,62308.97
2023-04-06T11:10:15.075Z,62321.22
2023-04-06T11:15:20.952Z,62307.47
2023-04-06T11:20:23.604Z,62281.00
2023-04-06T11:25:27.126Z,62274.34
2023-04-06T11:30:31.296Z,62247.75
2023-04-06T11:35:34.919Z,62241.94
2023-04-06T11:40:37.787Z,62271.88
2023-04-06T11:45:45.227Z,62250.72
2023-04-06T11:50:49.647Z,62225.09
2023-04-06T11:55:53.303Z,62163.53
2023-04-06T12:01:05.612Z,62267.31
2023-04-06T12:06:08.427Z,62235.19
2023-04-06T12:11:11.187Z,62273.19
2023-04-06T12:16:15.565Z,62244.13
2023-04-06T12:21:19.320Z,62221.16
2023-04-06T12:26:21.883Z,62210.38
2023-04-06T12:31:26.749Z,62149.53
2023-04-06T12:36:29.839Z,62145.72
2023-04-06T12:41:32.461Z,62109.94
2023-04-06T12:46:37.401Z,62221.63
2023-04-06T12:51:40.065Z,62146.84
2023-04-06T12:56:42.662Z,62174.75
2023-04-06T13:01:46.717Z,62169.41
2023-04-06T13:06:49.360Z,62165.19
2023-04-06T13:11:53.120Z,62166.00
2023-04-06T13:16:57.099Z,62171.72
2023-04-06T13:21:59.860Z,62156.97
2023-04-06T13:27:03.557Z,62118.69
2023-04-06T13:32:08.673Z,62160.13
2023-04-06T13:37:11.341Z,62080.19
2023-04-06T13:42:13.968Z,62042.44
2023-04-06T13:47:18.627Z,61975.69
2023-04-06T13:52:21.697Z,61949.66
2023-04-06T13:57:24.408Z,62006.19
2023-04-06T14:02:28.647Z,61973.22
2023-04-06T14:07:31.444Z,61938.69
2023-04-06T14:12:34.092Z,61921.72
2023-04-06T14:17:38.215Z,61881.06
2023-04-06T14:22:41.191Z,61871.72
2023-04-06T14:27:44.846Z,61831.75
2023-04-06T14:32:49.214Z,61786.25
2023-04-06T14:37:51.912Z,61804.06
2023-04-06T14:42:55.799Z,61772.22
2023-04-06T14:47:59.793Z,61807.03
2023-04-06T14:53:02.538Z,61766.50
2023-04-06T14:58:05.332Z,61772.38
2023-04-06T15:03:09.584Z,61786.22
2023-04-06T15:08:16.027Z,61730.94
2023-04-06T15:13:19.406Z,61733.00
2023-04-06T15:18:23.383Z,61721.84
2023-04-06T15:23:26.012Z,61723.03
2023-04-06T15:28:29.414Z,61725.41
2023-04-06T15:33:33.340Z,61699.31
2023-04-06T15:38:36.006Z,61693.59
2023-04-06T15:43:40.594Z,61734.13
2023-04-06T15:48:44.922Z,61685.34
2023-04-06T15:53:47.663Z,61711.63
2023-04-06T15:58:50.316Z,61690.13
2023-04-06T16:03:54.299Z,61718.63
2023-04-06T16:08:56.929Z,61672.09
2023-04-06T16:14:00.104Z,61677.81
2023-04-06T16:19:04.400Z,61684.22
2023-04-06T16:24:08.548Z,61674.69
2023-04-06T16:29:11.395Z,61659.56
2023-04-06T16:34:15.548Z,61658.34
2023-04-06T16:39:18.174Z,61659.88
2023-04-06T16:44:20.799Z,61631.72
2023-04-06T16:49:24.772Z,61652.84
2023-04-06T16:54:27.490Z,61631.97
2023-04-06T16:59:30.415Z,61660.94
2023-04-06T17:04:34.349Z,61628.31
2023-04-06T17:09:36.926Z,61634.56
2023-04-06T17:14:39.513Z,61648.03
2023-04-06T17:19:43.422Z,61649.50
2023-04-06T17:24:46.192Z,61641.31
2023-04-06T17:29:48.766Z,61623.66
2023-04-06T17:34:52.694Z,61690.94
2023-04-06T17:39:55.402Z,61634.84
2023-04-06T17:44:59.270Z,61639.50
2023-04-06T17:50:03.664Z,61653.91
2023-04-06T17:55:06.517Z,61626.91
2023-04-06T18:00:10.555Z,61626.31
2023-04-06T18:05:14.514Z,61615.78
2023-04-06T18:10:17.828Z,61633.31
2023-04-06T18:15:20.418Z,61596.53
2023-04-06T18:20:24.310Z,61609.94
2023-04-06T18:25:27.260Z,61600.53
2023-04-06T18:30:30.818Z,61580.91
2023-04-06T18:35:34.677Z,61619.66
2023-04-06T18:40:38.452Z,61607.19
2023-04-06T18:45:41.704Z,61601.47
2023-04-06T18:50:54.212Z,61618.59
2023-04-06T18:55:57.651Z,61592.19
2023-04-06T19:01:00.545Z,61605.19
2023-04-06T19:06:06.041Z,61606.66
2023-04-06T19:11:08.790Z,61578.25
2023-04-06T19:16:12.248Z,61608.31
2023-04-06T19:21:20.492Z,61594.31
2023-04-06T19:26:24.034Z,61580.25
2023-04-06T19:31:28.068Z,61633.59
2023-04-06T19:36:33.462Z,61573.59
2023-04-06T19:41:36.078Z,61570.97
2023-04-06T19:46:38.742Z,61586.00
2023-04-06T19:51:42.759Z,61598.44
2023-04-06T19:56:45.409Z,61584.44
2023-04-06T20:01:48.154Z,61566.84
2023-04-06T20:06:53.471Z,61589.13
2023-04-06T20:11:56.150Z,61596.31
2023-04-06T20:16:59.895Z,61600.97
2023-04-06T20:22:04.944Z,61590.19
2023-04-06T20:27:07.520Z,61582.31
2023-04-06T20:32:11.125Z,61576.66
2023-04-06T20:37:14.977Z,61564.78
2023-04-06T20:42:17.818Z,61583.47
2023-04-06T20:47:20.385Z,61559.66
2023-04-06T20:52:24.580Z,61600.53
2023-04-06T20:57:27.170Z,61585.13
2023-04-06T21:02:29.793Z,61619.38
2023-04-06T21:07:33.769Z,61574.91
2023-04-06T21:12:36.320Z,61619.88
2023-04-06T21:17:38.918Z,61625.16
2023-04-06T21:22:42.798Z,61593.59
2023-04-06T21:27:45.359Z,61615.91
2023-04-06T21:32:47.997Z,61589.53
2023-04-06T21:37:51.967Z,61613.84
2023-04-06T21:42:54.538Z,61609.72
2023-04-06T21:47:57.132Z,61603.53
2023-04-06T21:53:01.037Z,61563.13
2023-04-06T21:58:03.655Z,61611.25
2023-04-06T22:03:06.776Z,61621.13
2023-04-06T22:08:15.197Z,61638.72
2023-04-06T22:13:20.707Z,61583.84
2023-04-06T22:18:23.371Z,61575.00
2023-04-06T22:23:27.531Z,61626.38
2023-04-06T22:28:30.107Z,61620.09
2023-04-06T22:33:32.665Z,61663.69
2023-04-06T22:38:36.700Z,61599.44
2023-04-06T22:43:39.285Z,61620.13
2023-04-06T22:48:41.829Z,61627.97
2023-04-06T22:53:45.720Z,61588.66
2023-04-06T22:58:48.514Z,61605.19
2023-04-06T23:03:51.267Z,61617.13
2023-04-06T23:08:55.488Z,61636.84
2023-04-06T23:13:58.084Z,61641.50
2023-04-06T23:19:00.897Z,61642.09
2023-04-06T23:24:04.935Z,61637.50
2023-04-06T23:29:07.497Z,61666.97
2023-04-06T23:34:10.058Z,61633.91
2023-04-06T23:39:13.946Z,61656.22
2023-04-06T23:44:16.525Z,61657.28
2023-04-06T23:49:19.070Z,61610.06
2023-04-06T23:54:23.066Z,61630.84
2023-04-06T23:59:25.769Z,61639.69
